sensor_id;sensor_type;location;lat;lon;timestamp;temperature;humidity
68719;DHT22;55696;52.138;5.444;2022-12-18T00:01:18;2.00;77.40
68719;DHT22;55696;52.138;5.444;2022-12-18T00:03:46;1.90;78.00
68719;DHT22;55696;52.138;5.444;2022-12-18T00:06:14;1.80;76.50
68719;DHT22;55696;52.138;5.444;2022-12-18T00:08:42;1.80;76.50
68719;DHT22;55696;52.138;5.444;2022-12-18T00:11:12;1.80;76.80
68719;DHT22;55696;52.138;5.444;2022-12-18T00:13:39;1.70;77.80
68719;DHT22;55696;52.138;5.444;2022-12-18T00:16:09;1.70;76.40
68719;DHT22;55696;52.138;5.444;2022-12-18T00:18:37;1.60;77.70
68719;DHT22;55696;52.138;5.444;2022-12-18T00:21:06;1.70;76.50
68719;DHT22;55696;52.138;5.444;2022-12-18T00:23:35;1.70;77.60
68719;DHT22;55696;52.138;5.444;2022-12-18T00:26:10;1.80;77.40
68719;DHT22;55696;52.138;5.444;2022-12-18T00:28:37;1.80;78.20
68719;DHT22;55696;52.138;5.444;2022-12-18T00:31:06;1.70;76.30
68719;DHT22;55696;52.138;5.444;2022-12-18T00:33:34;1.70;77.50
68719;DHT22;55696;52.138;5.444;2022-12-18T00:36:27;1.60;77.10
68719;DHT22;55696;52.138;5.444;2022-12-18T00:38:56;1.70;78.30
68719;DHT22;55696;52.138;5.444;2022-12-18T00:41:24;1.70;78.20
68719;DHT22;55696;52.138;5.444;2022-12-18T00:44:12;1.70;77.20
68719;DHT22;55696;52.138;5.444;2022-12-18T00:46:40;1.70;77.60
68719;DHT22;55696;52.138;5.444;2022-12-18T00:49:07;2.30;77.70
68719;DHT22;55696;52.138;5.444;2022-12-18T00:51:34;1.70;76.20
68719;DHT22;55696;52.138;5.444;2022-12-18T00:54:01;1.70;77.30
68719;DHT22;55696;52.138;5.444;2022-12-18T00:56:28;1.70;76.30
68719;DHT22;55696;52.138;5.444;2022-12-18T00:58:54;1.70;76.20
68719;DHT22;55696;52.138;5.444;2022-12-18T01:01:21;1.70;76.20
68719;DHT22;55696;52.138;5.444;2022-12-18T01:03:48;1.70;76.30
68719;DHT22;55696;52.138;5.444;2022-12-18T01:06:16;1.60;76.40
68719;DHT22;55696;52.138;5.444;2022-12-18T01:08:43;1.60;76.80
68719;DHT22;55696;52.138;5.444;2022-12-18T01:11:17;1.50;76.40
68719;DHT22;55696;52.138;5.444;2022-12-18T01:13:45;1.50;78.30
68719;DHT22;55696;52.138;5.444;2022-12-18T01:16:13;1.50;76.60
68719;DHT22;55696;52.138;5.444;2022-12-18T01:18:41;1.50;77.50
68719;DHT22;55696;52.138;5.444;2022-12-18T01:21:09;1.50;76.80
68719;DHT22;55696;52.138;5.444;2022-12-18T01:23:37;1.70;78.20
68719;DHT22;55696;52.138;5.444;2022-12-18T01:26:10;1.60;76.90
68719;DHT22;55696;52.138;5.444;2022-12-18T01:28:37;1.50;77.20
68719;DHT22;55696;52.138;5.444;2022-12-18T01:31:18;1.60;76.70
68719;DHT22;55696;52.138;5.444;2022-12-18T01:33:46;1.60;78.80
68719;DHT22;55696;52.138;5.444;2022-12-18T01:36:18;1.60;76.70
68719;DHT22;55696;52.138;5.444;2022-12-18T01:38:46;1.60;78.40
68719;DHT22;55696;52.138;5.444;2022-12-18T01:41:15;1.50;77.30
68719;DHT22;55696;52.138;5.444;2022-12-18T01:43:57;1.60;77.50
68719;DHT22;55696;52.138;5.444;2022-12-18T01:46:25;1.50;78.50
68719;DHT22;55696;52.138;5.444;2022-12-18T01:49:00;1.40;77.60
68719;DHT22;55696;52.138;5.444;2022-12-18T01:51:29;1.30;78.70
68719;DHT22;55696;52.138;5.444;2022-12-18T01:53:57;1.30;78.20
68719;DHT22;55696;52.138;5.444;2022-12-18T01:56:25;1.30;77.30
68719;DHT22;55696;52.138;5.444;2022-12-18T01:58:58;1.20;76.90
68719;DHT22;55696;52.138;5.444;2022-12-18T02:01:26;1.20;78.50
68719;DHT22;55696;52.138;5.444;2022-12-18T02:03:53;1.10;77.00
68719;DHT22;55696;52.138;5.444;2022-12-18T02:06:26;1.40;77.20
68719;DHT22;55696;52.138;5.444;2022-12-18T02:14:35;1.00;78.90
68719;DHT22;55696;52.138;5.444;2022-12-18T02:17:06;1.00;79.80
68719;DHT22;55696;52.138;5.444;2022-12-18T02:20:01;1.00;77.00
68719;DHT22;55696;52.138;5.444;2022-12-18T02:22:44;1.00;78.60
68719;DHT22;55696;52.138;5.444;2022-12-18T02:25:28;0.90;78.60
68719;DHT22;55696;52.138;5.444;2022-12-18T02:27:59;0.80;78.40
68719;DHT22;55696;52.138;5.444;2022-12-18T02:30:31;0.80;78.70
68719;DHT22;55696;52.138;5.444;2022-12-18T02:33:01;0.80;78.90
68719;DHT22;55696;52.138;5.444;2022-12-18T02:35:32;0.80;78.60
68719;DHT22;55696;52.138;5.444;2022-12-18T02:38:02;0.70;78.10
68719;DHT22;55696;52.138;5.444;2022-12-18T02:40:33;0.70;78.00
68719;DHT22;55696;52.138;5.444;2022-12-18T02:43:12;0.70;77.20
68719;DHT22;55696;52.138;5.444;2022-12-18T02:45:54;0.60;79.30
68719;DHT22;55696;52.138;5.444;2022-12-18T02:48:26;0.70;79.40
68719;DHT22;55696;52.138;5.444;2022-12-18T02:51:22;0.60;78.30
68719;DHT22;55696;52.138;5.444;2022-12-18T02:54:07;0.60;78.50
68719;DHT22;55696;52.138;5.444;2022-12-18T02:56:51;0.50;79.20
68719;DHT22;55696;52.138;5.444;2022-12-18T02:59:45;0.50;79.50
68719;DHT22;55696;52.138;5.444;2022-12-18T03:02:38;0.40;78.90
68719;DHT22;55696;52.138;5.444;2022-12-18T03:05:17;0.40;79.50
68719;DHT22;55696;52.138;5.444;2022-12-18T03:08:07;0.40;79.10
68719;DHT22;55696;52.138;5.444;2022-12-18T03:10:44;0.40;79.50
68719;DHT22;55696;52.138;5.444;2022-12-18T03:13:16;0.30;79.00
68719;DHT22;55696;52.138;5.444;2022-12-18T03:15:49;0.30;78.80
68719;DHT22;55696;52.138;5.444;2022-12-18T03:18:24;0.30;78.60
68719;DHT22;55696;52.138;5.444;2022-12-18T03:20:53;0.30;78.30
68719;DHT22;55696;52.138;5.444;2022-12-18T03:23:27;0.30;78.20
68719;DHT22;55696;52.138;5.444;2022-12-18T03:25:58;0.20;78.70
68719;DHT22;55696;52.138;5.444;2022-12-18T03:28:39;0.20;78.30
68719;DHT22;55696;52.138;5.444;2022-12-18T03:31:10;0.30;78.50
68719;DHT22;55696;52.138;5.444;2022-12-18T03:33:42;0.20;78.20
68719;DHT22;55696;52.138;5.444;2022-12-18T03:36:10;0.20;78.50
68719;DHT22;55696;52.138;5.444;2022-12-18T03:38:38;0.20;76.80
68719;DHT22;55696;52.138;5.444;2022-12-18T03:41:24;0.20;77.00
68719;DHT22;55696;52.138;5.444;2022-12-18T03:47:08;0.20;78.70
68719;DHT22;55696;52.138;5.444;2022-12-18T03:49:46;0.20;78.20
68719;DHT22;55696;52.138;5.444;2022-12-18T03:52:26;0.10;78.00
68719;DHT22;55696;52.138;5.444;2022-12-18T03:54:55;0.10;78.80
68719;DHT22;55696;52.138;5.444;2022-12-18T03:57:26;0.10;77.50
68719;DHT22;55696;52.138;5.444;2022-12-18T04:00:03;0.10;78.20
68719;DHT22;55696;52.138;5.444;2022-12-18T04:02:43;0.10;78.20
68719;DHT22;55696;52.138;5.444;2022-12-18T04:05:17;0.10;78.40
68719;DHT22;55696;52.138;5.444;2022-12-18T04:07:46;0.10;76.90
68719;DHT22;55696;52.138;5.444;2022-12-18T04:10:15;0.10;78.00
68719;DHT22;55696;52.138;5.444;2022-12-18T04:12:42;0.00;77.60
68719;DHT22;55696;52.138;5.444;2022-12-18T04:15:12;0.00;76.90
68719;DHT22;55696;52.138;5.444;2022-12-18T04:17:46;0.00;77.60
68719;DHT22;55696;52.138;5.444;2022-12-18T04:20:19;0.00;78.20
68719;DHT22;55696;52.138;5.444;2022-12-18T04:22:46;0.00;76.40
68719;DHT22;55696;52.138;5.444;2022-12-18T04:25:13;0.10;76.40
68719;DHT22;55696;52.138;5.444;2022-12-18T04:27:52;0.10;76.50
68719;DHT22;55696;52.138;5.444;2022-12-18T04:30:19;0.10;76.40
68719;DHT22;55696;52.138;5.444;2022-12-18T04:32:47;0.10;76.40
68719;DHT22;55696;52.138;5.444;2022-12-18T04:35:18;0.00;76.20
68719;DHT22;55696;52.138;5.444;2022-12-18T04:37:46;0.00;76.20
68719;DHT22;55696;52.138;5.444;2022-12-18T04:40:12;0.00;76.10
68719;DHT22;55696;52.138;5.444;2022-12-18T04:42:44;0.00;76.10
68719;DHT22;55696;52.138;5.444;2022-12-18T04:45:11;0.00;76.00
68719;DHT22;55696;52.138;5.444;2022-12-18T04:47:38;-0.10;76.10
68719;DHT22;55696;52.138;5.444;2022-12-18T04:50:05;-0.10;76.20
68719;DHT22;55696;52.138;5.444;2022-12-18T04:52:32;-0.10;76.50
68719;DHT22;55696;52.138;5.444;2022-12-18T04:54:59;-0.20;76.10
68719;DHT22;55696;52.138;5.444;2022-12-18T04:57:25;-0.10;76.30
68719;DHT22;55696;52.138;5.444;2022-12-18T04:59:52;-0.20;76.10
68719;DHT22;55696;52.138;5.444;2022-12-18T05:02:19;-0.20;75.80
68719;DHT22;55696;52.138;5.444;2022-12-18T05:04:46;-0.10;75.90
68719;DHT22;55696;52.138;5.444;2022-12-18T05:07:13;-0.10;75.80
68719;DHT22;55696;52.138;5.444;2022-12-18T05:09:39;-0.10;75.80
68719;DHT22;55696;52.138;5.444;2022-12-18T05:12:07;-0.10;75.80
68719;DHT22;55696;52.138;5.444;2022-12-18T05:14:33;-0.10;75.80
68719;DHT22;55696;52.138;5.444;2022-12-18T05:17:00;-0.10;75.80
68719;DHT22;55696;52.138;5.444;2022-12-18T05:19:27;0.00;76.10
68719;DHT22;55696;52.138;5.444;2022-12-18T05:21:54;-0.10;76.10
68719;DHT22;55696;52.138;5.444;2022-12-18T05:24:21;-0.10;76.10
68719;DHT22;55696;52.138;5.444;2022-12-18T05:26:48;0.00;76.50
68719;DHT22;55696;52.138;5.444;2022-12-18T05:29:15;0.00;75.80
68719;DHT22;55696;52.138;5.444;2022-12-18T05:31:42;0.00;76.70
68719;DHT22;55696;52.138;5.444;2022-12-18T05:34:09;0.00;75.80
68719;DHT22;55696;52.138;5.444;2022-12-18T05:36:37;0.00;75.60
68719;DHT22;55696;52.138;5.444;2022-12-18T05:39:03;0.00;75.70
68719;DHT22;55696;52.138;5.444;2022-12-18T05:41:31;0.00;75.70
68719;DHT22;55696;52.138;5.444;2022-12-18T05:43:58;-0.10;75.60
68719;DHT22;55696;52.138;5.444;2022-12-18T05:46:26;0.00;75.90
68719;DHT22;55696;52.138;5.444;2022-12-18T05:48:53;0.00;76.30
68719;DHT22;55696;52.138;5.444;2022-12-18T05:51:21;-0.10;75.60
68719;DHT22;55696;52.138;5.444;2022-12-18T05:53:48;-0.10;76.80
68719;DHT22;55696;52.138;5.444;2022-12-18T05:56:20;-0.10;75.60
68719;DHT22;55696;52.138;5.444;2022-12-18T05:58:50;-0.10;77.50
68719;DHT22;55696;52.138;5.444;2022-12-18T06:01:20;-0.20;76.60
68719;DHT22;55696;52.138;5.444;2022-12-18T06:03:47;-0.20;77.00
68719;DHT22;55696;52.138;5.444;2022-12-18T06:06:25;-0.20;75.50
68719;DHT22;55696;52.138;5.444;2022-12-18T06:08:53;-0.20;77.20
68719;DHT22;55696;52.138;5.444;2022-12-18T06:11:24;-0.30;76.40
68719;DHT22;55696;52.138;5.444;2022-12-18T06:13:53;-0.20;77.50
68719;DHT22;55696;52.138;5.444;2022-12-18T06:16:25;-0.30;76.60
68719;DHT22;55696;52.138;5.444;2022-12-18T06:18:53;-0.30;76.40
68719;DHT22;55696;52.138;5.444;2022-12-18T06:21:22;-0.40;75.80
68719;DHT22;55696;52.138;5.444;2022-12-18T06:23:48;-0.40;75.90
68719;DHT22;55696;52.138;5.444;2022-12-18T06:26:15;-0.50;75.70
68719;DHT22;55696;52.138;5.444;2022-12-18T06:28:42;-0.60;75.90
68719;DHT22;55696;52.138;5.444;2022-12-18T06:31:10;-0.70;75.80
68719;DHT22;55696;52.138;5.444;2022-12-18T06:33:37;-0.70;76.30
68719;DHT22;55696;52.138;5.444;2022-12-18T06:36:10;-0.80;76.60
68719;DHT22;55696;52.138;5.444;2022-12-18T06:38:40;0.00;78.30
68719;DHT22;55696;52.138;5.444;2022-12-18T06:41:13;-0.80;77.40
68719;DHT22;55696;52.138;5.444;2022-12-18T06:43:40;-0.80;77.90
68719;DHT22;55696;52.138;5.444;2022-12-18T06:46:08;-0.80;76.00
68719;DHT22;55696;52.138;5.444;2022-12-18T06:48:35;-0.70;76.10
68719;DHT22;55696;52.138;5.444;2022-12-18T06:51:02;-0.70;76.40
68719;DHT22;55696;52.138;5.444;2022-12-18T06:53:29;-0.80;76.20
68719;DHT22;55696;52.138;5.444;2022-12-18T06:56:06;-0.70;75.70
68719;DHT22;55696;52.138;5.444;2022-12-18T06:58:36;-0.80;77.80
68719;DHT22;55696;52.138;5.444;2022-12-18T07:01:05;-0.80;75.70
68719;DHT22;55696;52.138;5.444;2022-12-18T07:03:32;-0.70;77.10
68719;DHT22;55696;52.138;5.444;2022-12-18T07:05:59;-0.70;75.80
68719;DHT22;55696;52.138;5.444;2022-12-18T07:08:26;-0.70;75.70
68719;DHT22;55696;52.138;5.444;2022-12-18T07:10:53;-0.70;76.60
68719;DHT22;55696;52.138;5.444;2022-12-18T07:13:22;-0.80;75.50
68719;DHT22;55696;52.138;5.444;2022-12-18T07:15:49;-0.70;76.40
68719;DHT22;55696;52.138;5.444;2022-12-18T07:18:16;-0.70;76.40
68719;DHT22;55696;52.138;5.444;2022-12-18T07:20:43;-0.70;75.90
68719;DHT22;55696;52.138;5.444;2022-12-18T07:23:12;-0.70;75.80
68719;DHT22;55696;52.138;5.444;2022-12-18T07:25:39;-0.70;77.10
68719;DHT22;55696;52.138;5.444;2022-12-18T07:28:06;-0.70;75.70
68719;DHT22;55696;52.138;5.444;2022-12-18T07:30:37;-0.60;75.60
68719;DHT22;55696;52.138;5.444;2022-12-18T07:33:04;-0.70;77.10
68719;DHT22;55696;52.138;5.444;2022-12-18T07:35:33;-0.60;75.50
68719;DHT22;55696;52.138;5.444;2022-12-18T07:38:00;-0.70;76.50
68719;DHT22;55696;52.138;5.444;2022-12-18T07:40:27;-0.60;75.30
68719;DHT22;55696;52.138;5.444;2022-12-18T07:42:53;-0.60;75.40
68719;DHT22;55696;52.138;5.444;2022-12-18T07:45:20;-0.60;75.40
68719;DHT22;55696;52.138;5.444;2022-12-18T07:47:47;-0.60;75.60
68719;DHT22;55696;52.138;5.444;2022-12-18T07:50:14;-0.60;75.60
68719;DHT22;55696;52.138;5.444;2022-12-18T07:52:41;-0.60;75.60
68719;DHT22;55696;52.138;5.444;2022-12-18T07:55:08;-0.50;75.50
68719;DHT22;55696;52.138;5.444;2022-12-18T07:57:34;-0.50;75.80
68719;DHT22;55696;52.138;5.444;2022-12-18T08:00:21;-0.50;75.20
68719;DHT22;55696;52.138;5.444;2022-12-18T08:02:47;-0.50;75.40
68719;DHT22;55696;52.138;5.444;2022-12-18T08:05:14;-0.40;75.30
68719;DHT22;55696;52.138;5.444;2022-12-18T08:07:41;-0.40;75.40
68719;DHT22;55696;52.138;5.444;2022-12-18T08:10:08;-0.40;75.30
68719;DHT22;55696;52.138;5.444;2022-12-18T08:12:35;-0.40;75.40
68719;DHT22;55696;52.138;5.444;2022-12-18T08:15:02;-0.40;75.40
68719;DHT22;55696;52.138;5.444;2022-12-18T08:17:29;-0.30;75.70
68719;DHT22;55696;52.138;5.444;2022-12-18T08:19:56;-0.30;75.10
68719;DHT22;55696;52.138;5.444;2022-12-18T08:22:22;-0.20;74.80
68719;DHT22;55696;52.138;5.444;2022-12-18T08:24:49;-0.10;74.90
68719;DHT22;55696;52.138;5.444;2022-12-18T08:27:16;-0.10;75.00
68719;DHT22;55696;52.138;5.444;2022-12-18T08:29:56;0.00;74.90
68719;DHT22;55696;52.138;5.444;2022-12-18T08:32:24;0.10;75.20
68719;DHT22;55696;52.138;5.444;2022-12-18T08:34:51;0.20;75.60
68719;DHT22;55696;52.138;5.444;2022-12-18T08:37:18;0.20;74.70
68719;DHT22;55696;52.138;5.444;2022-12-18T08:39:45;0.30;74.80
68719;DHT22;55696;52.138;5.444;2022-12-18T08:42:12;0.40;74.50
68719;DHT22;55696;52.138;5.444;2022-12-18T08:44:57;0.40;74.10
68719;DHT22;55696;52.138;5.444;2022-12-18T08:47:23;0.40;74.40
68719;DHT22;55696;52.138;5.444;2022-12-18T08:49:52;0.40;74.40
68719;DHT22;55696;52.138;5.444;2022-12-18T08:52:19;0.50;75.80
68719;DHT22;55696;52.138;5.444;2022-12-18T08:54:46;0.50;74.60
68719;DHT22;55696;52.138;5.444;2022-12-18T08:57:12;0.60;74.60
68719;DHT22;55696;52.138;5.444;2022-12-18T08:59:39;0.60;74.40
68719;DHT22;55696;52.138;5.444;2022-12-18T09:02:06;0.70;74.40
68719;DHT22;55696;52.138;5.444;2022-12-18T09:04:34;0.80;74.30
68719;DHT22;55696;52.138;5.444;2022-12-18T09:07:01;0.90;74.20
68719;DHT22;55696;52.138;5.444;2022-12-18T09:09:28;0.90;74.40
68719;DHT22;55696;52.138;5.444;2022-12-18T09:11:55;0.90;74.00
68719;DHT22;55696;52.138;5.444;2022-12-18T09:14:21;0.90;73.90
68719;DHT22;55696;52.138;5.444;2022-12-18T09:16:48;1.00;73.90
68719;DHT22;55696;52.138;5.444;2022-12-18T09:19:15;1.10;73.90
68719;DHT22;55696;52.138;5.444;2022-12-18T09:21:42;1.20;73.90
68719;DHT22;55696;52.138;5.444;2022-12-18T09:24:15;1.30;73.90
68719;DHT22;55696;52.138;5.444;2022-12-18T09:26:42;1.30;74.20
68719;DHT22;55696;52.138;5.444;2022-12-18T09:29:14;1.30;73.90
68719;DHT22;55696;52.138;5.444;2022-12-18T09:31:43;1.40;74.20
68719;DHT22;55696;52.138;5.444;2022-12-18T09:34:10;1.50;73.80
68719;DHT22;55696;52.138;5.444;2022-12-18T09:36:37;1.50;73.70
68719;DHT22;55696;52.138;5.444;2022-12-18T09:39:04;1.50;74.30
68719;DHT22;55696;52.138;5.444;2022-12-18T09:41:47;1.60;73.50
68719;DHT22;55696;52.138;5.444;2022-12-18T09:44:43;1.70;72.80
68719;DHT22;55696;52.138;5.444;2022-12-18T09:47:19;1.80;75.00
68719;DHT22;55696;52.138;5.444;2022-12-18T09:49:53;1.90;75.20
68719;DHT22;55696;52.138;5.444;2022-12-18T09:55:24;2.10;74.30
68719;DHT22;55696;52.138;5.444;2022-12-18T09:58:04;2.20;74.60
68719;DHT22;55696;52.138;5.444;2022-12-18T10:00:33;2.30;74.10
68719;DHT22;55696;52.138;5.444;2022-12-18T10:03:08;2.40;72.30
68719;DHT22;55696;52.138;5.444;2022-12-18T10:05:49;2.50;73.90
68719;DHT22;55696;52.138;5.444;2022-12-18T10:10:57;2.60;74.10
68719;DHT22;55696;52.138;5.444;2022-12-18T10:16:16;2.70;71.10
68719;DHT22;55696;52.138;5.444;2022-12-18T10:21:28;2.80;73.90
68719;DHT22;55696;52.138;5.444;2022-12-18T10:24:08;2.80;73.40
68719;DHT22;55696;52.138;5.444;2022-12-18T10:26:41;2.90;72.70
68719;DHT22;55696;52.138;5.444;2022-12-18T10:29:12;2.80;72.40
68719;DHT22;55696;52.138;5.444;2022-12-18T10:31:39;2.90;73.20
68719;DHT22;55696;52.138;5.444;2022-12-18T10:34:11;2.90;71.40
68719;DHT22;55696;52.138;5.444;2022-12-18T10:36:38;3.00;73.20
68719;DHT22;55696;52.138;5.444;2022-12-18T10:39:20;3.00;71.60
68719;DHT22;55696;52.138;5.444;2022-12-18T10:41:48;3.00;73.60
68719;DHT22;55696;52.138;5.444;2022-12-18T10:44:23;3.00;71.60
68719;DHT22;55696;52.138;5.444;2022-12-18T10:46:53;3.00;72.70
68719;DHT22;55696;52.138;5.444;2022-12-18T10:49:26;3.00;72.70
68719;DHT22;55696;52.138;5.444;2022-12-18T10:52:19;3.10;70.50
68719;DHT22;55696;52.138;5.444;2022-12-18T10:57:32;3.20;72.80
68719;DHT22;55696;52.138;5.444;2022-12-18T11:00:03;3.30;73.10
68719;DHT22;55696;52.138;5.444;2022-12-18T11:02:39;3.40;72.00
68719;DHT22;55696;52.138;5.444;2022-12-18T11:05:27;3.30;70.60
68719;DHT22;55696;52.138;5.444;2022-12-18T11:07:54;3.40;73.00
68719;DHT22;55696;52.138;5.444;2022-12-18T11:10:40;3.50;70.90
68719;DHT22;55696;52.138;5.444;2022-12-18T11:13:19;3.60;72.20
68719;DHT22;55696;52.138;5.444;2022-12-18T11:15:47;3.60;71.80
68719;DHT22;55696;52.138;5.444;2022-12-18T11:18:19;3.60;70.00
68719;DHT22;55696;52.138;5.444;2022-12-18T11:20:57;3.60;71.70
68719;DHT22;55696;52.138;5.444;2022-12-18T11:23:26;3.70;71.70
68719;DHT22;55696;52.138;5.444;2022-12-18T11:25:57;3.60;70.40
68719;DHT22;55696;52.138;5.444;2022-12-18T11:31:25;3.80;72.20
68719;DHT22;55696;52.138;5.444;2022-12-18T11:34:00;3.80;72.00
68719;DHT22;55696;52.138;5.444;2022-12-18T11:36:48;3.90;71.30
68719;DHT22;55696;52.138;5.444;2022-12-18T11:42:08;3.90;71.30
68719;DHT22;55696;52.138;5.444;2022-12-18T11:44:48;3.90;71.00
68719;DHT22;55696;52.138;5.444;2022-12-18T11:47:46;3.90;70.40
68719;DHT22;55696;52.138;5.444;2022-12-18T11:50:21;4.00;70.70
68719;DHT22;55696;52.138;5.444;2022-12-18T11:52:50;4.20;69.90
68719;DHT22;55696;52.138;5.444;2022-12-18T12:10:28;4.10;71.10
68719;DHT22;55696;52.138;5.444;2022-12-18T12:12:51;4.10;70.60
68719;DHT22;55696;52.138;5.444;2022-12-18T12:26:07;4.20;70.50
68719;DHT22;55696;52.138;5.444;2022-12-18T12:28:59;4.20;68.10
68719;DHT22;55696;52.138;5.444;2022-12-18T12:34:23;4.20;69.70
68719;DHT22;55696;52.138;5.444;2022-12-18T12:37:08;4.30;69.30
68719;DHT22;55696;52.138;5.444;2022-12-18T12:39:42;4.20;69.10
68719;DHT22;55696;52.138;5.444;2022-12-18T12:42:20;4.20;69.50
68719;DHT22;55696;52.138;5.444;2022-12-18T12:45:28;4.20;69.90
68719;DHT22;55696;52.138;5.444;2022-12-18T12:47:57;4.40;69.40
68719;DHT22;55696;52.138;5.444;2022-12-18T12:50:26;4.50;68.80
68719;DHT22;55696;52.138;5.444;2022-12-18T12:52:54;4.40;67.80
68719;DHT22;55696;52.138;5.444;2022-12-18T12:55:24;4.50;69.00
68719;DHT22;55696;52.138;5.444;2022-12-18T12:58:05;4.40;68.60
68719;DHT22;55696;52.138;5.444;2022-12-18T13:00:55;4.60;69.50
68719;DHT22;55696;52.138;5.444;2022-12-18T13:09:01;4.50;69.30
68719;DHT22;55696;52.138;5.444;2022-12-18T13:11:38;4.40;69.30
68719;DHT22;55696;52.138;5.444;2022-12-18T13:14:44;4.30;68.10
68719;DHT22;55696;52.138;5.444;2022-12-18T13:19:50;4.50;69.50
68719;DHT22;55696;52.138;5.444;2022-12-18T13:22:41;4.50;68.10
68719;DHT22;55696;52.138;5.444;2022-12-18T13:25:28;4.50;70.10
68719;DHT22;55696;52.138;5.444;2022-12-18T13:28:13;4.50;69.60
68719;DHT22;55696;52.138;5.444;2022-12-18T13:30:43;4.40;68.80
68719;DHT22;55696;52.138;5.444;2022-12-18T13:35:52;4.40;68.80
68719;DHT22;55696;52.138;5.444;2022-12-18T13:51:23;4.50;68.30
68719;DHT22;55696;52.138;5.444;2022-12-18T13:54:39;4.50;67.50
68719;DHT22;55696;52.138;5.444;2022-12-18T13:56:44;4.50;68.10
68719;DHT22;55696;52.138;5.444;2022-12-18T14:01:44;4.40;66.90
68719;DHT22;55696;52.138;5.444;2022-12-18T14:04:19;4.40;68.80
68719;DHT22;55696;52.138;5.444;2022-12-18T14:06:47;4.30;68.90
68719;DHT22;55696;52.138;5.444;2022-12-18T14:09:27;4.40;67.80
68719;DHT22;55696;52.138;5.444;2022-12-18T14:11:56;4.40;69.10
68719;DHT22;55696;52.138;5.444;2022-12-18T14:14:46;4.50;68.10
68719;DHT22;55696;52.138;5.444;2022-12-18T14:17:15;4.50;68.40
68719;DHT22;55696;52.138;5.444;2022-12-18T14:19:48;4.40;67.70
68719;DHT22;55696;52.138;5.444;2022-12-18T14:22:23;4.40;68.80
68719;DHT22;55696;52.138;5.444;2022-12-18T14:27:49;4.40;68.80
68719;DHT22;55696;52.138;5.444;2022-12-18T14:33:26;4.80;69.20
68719;DHT22;55696;52.138;5.444;2022-12-18T14:35:58;4.50;68.60
68719;DHT22;55696;52.138;5.444;2022-12-18T14:38:36;4.60;67.50
68719;DHT22;55696;52.138;5.444;2022-12-18T14:41:11;4.40;66.00
68719;DHT22;55696;52.138;5.444;2022-12-18T14:43:40;4.40;68.70
68719;DHT22;55696;52.138;5.444;2022-12-18T14:46:41;4.40;67.60
68719;DHT22;55696;52.138;5.444;2022-12-18T14:49:30;4.40;69.00
68719;DHT22;55696;52.138;5.444;2022-12-18T14:52:06;4.40;68.90
68719;DHT22;55696;52.138;5.444;2022-12-18T14:54:35;4.40;68.50
68719;DHT22;55696;52.138;5.444;2022-12-18T14:57:19;4.40;67.20
68719;DHT22;55696;52.138;5.444;2022-12-18T14:59:47;4.40;67.10
68719;DHT22;55696;52.138;5.444;2022-12-18T15:04:41;4.40;66.40
68719;DHT22;55696;52.138;5.444;2022-12-18T15:07:21;4.40;66.70
68719;DHT22;55696;52.138;5.444;2022-12-18T15:10:30;4.30;68.50
68719;DHT22;55696;52.138;5.444;2022-12-18T15:20:52;4.20;68.30
68719;DHT22;55696;52.138;5.444;2022-12-18T15:23:22;4.30;68.70
68719;DHT22;55696;52.138;5.444;2022-12-18T15:26:03;4.30;66.20
68719;DHT22;55696;52.138;5.444;2022-12-18T15:28:36;4.40;68.00
68719;DHT22;55696;52.138;5.444;2022-12-18T15:33:44;4.40;67.50
68719;DHT22;55696;52.138;5.444;2022-12-18T15:36:16;4.30;66.90
68719;DHT22;55696;52.138;5.444;2022-12-18T15:38:52;4.30;67.20
68719;DHT22;55696;52.138;5.444;2022-12-18T15:41:21;4.40;66.40
68719;DHT22;55696;52.138;5.444;2022-12-18T15:43:52;4.40;67.10
68719;DHT22;55696;52.138;5.444;2022-12-18T15:46:24;4.30;66.90
68719;DHT22;55696;52.138;5.444;2022-12-18T15:48:53;4.30;67.70
68719;DHT22;55696;52.138;5.444;2022-12-18T15:51:33;4.30;66.90
68719;DHT22;55696;52.138;5.444;2022-12-18T15:54:02;4.30;67.50
68719;DHT22;55696;52.138;5.444;2022-12-18T15:56:32;4.30;66.80
68719;DHT22;55696;52.138;5.444;2022-12-18T15:59:19;4.80;65.80
68719;DHT22;55696;52.138;5.444;2022-12-18T16:01:48;4.20;66.70
68719;DHT22;55696;52.138;5.444;2022-12-18T16:04:18;4.20;66.90
68719;DHT22;55696;52.138;5.444;2022-12-18T16:06:48;4.20;66.90
68719;DHT22;55696;52.138;5.444;2022-12-18T16:09:36;4.20;66.20
68719;DHT22;55696;52.138;5.444;2022-12-18T16:12:04;4.30;66.60
68719;DHT22;55696;52.138;5.444;2022-12-18T16:14:31;4.20;66.20
68719;DHT22;55696;52.138;5.444;2022-12-18T16:17:00;4.20;66.00
68719;DHT22;55696;52.138;5.444;2022-12-18T16:19:28;4.20;66.80
68719;DHT22;55696;52.138;5.444;2022-12-18T16:21:56;4.10;66.60
68719;DHT22;55696;52.138;5.444;2022-12-18T16:24:28;4.10;66.90
68719;DHT22;55696;52.138;5.444;2022-12-18T16:26:57;4.20;68.00
68719;DHT22;55696;52.138;5.444;2022-12-18T16:29:27;4.20;66.90
68719;DHT22;55696;52.138;5.444;2022-12-18T16:31:59;4.10;66.90
68719;DHT22;55696;52.138;5.444;2022-12-18T16:34:33;4.20;66.20
68719;DHT22;55696;52.138;5.444;2022-12-18T16:37:04;4.20;67.60
68719;DHT22;55696;52.138;5.444;2022-12-18T16:39:36;4.20;67.10
68719;DHT22;55696;52.138;5.444;2022-12-18T16:42:12;4.20;67.40
68719;DHT22;55696;52.138;5.444;2022-12-18T16:44:41;4.10;66.20
68719;DHT22;55696;52.138;5.444;2022-12-18T16:47:08;4.20;66.00
68719;DHT22;55696;52.138;5.444;2022-12-18T16:49:38;4.10;65.80
68719;DHT22;55696;52.138;5.444;2022-12-18T16:52:06;4.20;65.50
68719;DHT22;55696;52.138;5.444;2022-12-18T16:54:33;4.10;66.00
68719;DHT22;55696;52.138;5.444;2022-12-18T16:57:02;4.10;65.60
68719;DHT22;55696;52.138;5.444;2022-12-18T16:59:31;4.10;66.10
68719;DHT22;55696;52.138;5.444;2022-12-18T17:01:58;4.60;66.10
68719;DHT22;55696;52.138;5.444;2022-12-18T17:04:24;4.20;65.80
68719;DHT22;55696;52.138;5.444;2022-12-18T17:06:51;4.10;65.50
68719;DHT22;55696;52.138;5.444;2022-12-18T17:09:20;4.20;65.50
68719;DHT22;55696;52.138;5.444;2022-12-18T17:11:52;4.10;66.70
68719;DHT22;55696;52.138;5.444;2022-12-18T17:14:20;4.20;66.40
68719;DHT22;55696;52.138;5.444;2022-12-18T17:16:47;4.20;67.10
68719;DHT22;55696;52.138;5.444;2022-12-18T17:19:34;4.20;66.70
68719;DHT22;55696;52.138;5.444;2022-12-18T17:22:01;4.30;65.80
68719;DHT22;55696;52.138;5.444;2022-12-18T17:24:29;4.30;65.70
68719;DHT22;55696;52.138;5.444;2022-12-18T17:27:01;4.30;65.40
68719;DHT22;55696;52.138;5.444;2022-12-18T17:29:28;4.30;65.40
68719;DHT22;55696;52.138;5.444;2022-12-18T17:31:55;4.30;65.40
68719;DHT22;55696;52.138;5.444;2022-12-18T17:34:24;4.20;65.20
68719;DHT22;55696;52.138;5.444;2022-12-18T17:36:50;4.30;65.20
68719;DHT22;55696;52.138;5.444;2022-12-18T17:39:18;4.30;64.80
68719;DHT22;55696;52.138;5.444;2022-12-18T17:41:47;4.40;66.10
68719;DHT22;55696;52.138;5.444;2022-12-18T17:44:15;4.40;65.50
68719;DHT22;55696;52.138;5.444;2022-12-18T17:46:43;4.50;65.30
68719;DHT22;55696;52.138;5.444;2022-12-18T17:49:11;4.40;64.60
68719;DHT22;55696;52.138;5.444;2022-12-18T17:51:38;4.40;64.40
68719;DHT22;55696;52.138;5.444;2022-12-18T17:54:08;4.50;64.60